createdAt,value
2019-03-16T00:00:09.987Z,6.718445
2019-03-16T00:00:21.774Z,6.708374
2019-03-16T00:00:33.526Z,6.708374
2019-03-16T00:00:45.281Z,6.718445
2019-03-16T00:00:57.022Z,6.718445
2019-03-16T00:01:08.791Z,6.718445
2019-03-16T00:01:20.571Z,6.718445
2019-03-16T00:01:32.334Z,6.718445
2019-03-16T00:01:56.392Z,6.718445
2019-03-16T00:01:57.798Z,6.718445
2019-03-16T00:02:09.543Z,6.708374
2019-03-16T00:02:21.313Z,6.708374
2019-03-16T00:02:33.076Z,6.708374
2019-03-16T00:02:44.844Z,6.688232
2019-03-16T00:02:56.614Z,6.708374
2019-03-16T00:03:08.362Z,6.708374
2019-03-16T00:03:20.113Z,6.708374
2019-03-16T00:03:31.870Z,6.718445
2019-03-16T00:03:43.628Z,6.718445
2019-03-16T00:03:55.399Z,6.708374
2019-03-16T00:04:07.164Z,6.708374
2019-03-16T00:04:18.942Z,6.708374
2019-03-16T00:04:30.679Z,6.708374
2019-03-16T00:04:42.446Z,6.718445
2019-03-16T00:04:54.186Z,6.718445
2019-03-16T00:05:05.962Z,6.718445
2019-03-16T00:05:17.711Z,6.728516
2019-03-16T00:05:29.482Z,6.718445
2019-03-16T00:05:41.252Z,6.728516
2019-03-16T00:05:53.021Z,6.718445
2019-03-16T00:06:04.772Z,6.718445
2019-03-16T00:06:16.557Z,6.718445
2019-03-16T00:06:28.323Z,6.718445
2019-03-16T00:06:40.091Z,6.728516
2019-03-16T00:06:51.840Z,6.728516
2019-03-16T00:07:03.592Z,6.728516
2019-03-16T00:07:15.351Z,6.728516
2019-03-16T00:07:33.080Z,6.728516
2019-03-16T00:07:39.844Z,6.728516
2019-03-16T00:07:51.599Z,6.718445
2019-03-16T00:08:03.350Z,6.718445
2019-03-16T00:08:15.123Z,6.728516
2019-03-16T00:08:26.908Z,6.728516
2019-03-16T00:08:38.668Z,6.728516
2019-03-16T00:08:50.425Z,6.728516
2019-03-16T00:09:02.340Z,6.758728
2019-03-16T00:09:14.130Z,6.758728
2019-03-16T00:09:25.871Z,6.718445
2019-03-16T00:09:37.648Z,6.728516
2019-03-16T00:09:49.428Z,6.728516
2019-03-16T00:10:01.182Z,6.728516
2019-03-16T00:10:13.926Z,6.728516
2019-03-16T00:10:25.671Z,6.728516
2019-03-16T00:10:37.430Z,6.718445
2019-03-16T00:10:49.183Z,6.718445
2019-03-16T00:11:00.952Z,6.728516
2019-03-16T00:11:12.687Z,6.708374
2019-03-16T00:11:24.427Z,6.718445
2019-03-16T00:11:36.260Z,6.708374
2019-03-16T00:11:48.009Z,6.708374
2019-03-16T00:11:59.830Z,6.708374
2019-03-16T00:12:11.477Z,6.708374
2019-03-16T00:12:23.228Z,6.688232
2019-03-16T00:12:34.996Z,6.708374
2019-03-16T00:12:46.749Z,6.688232
2019-03-16T00:12:58.508Z,6.708374
2019-03-16T00:13:10.289Z,6.688232
2019-03-16T00:13:22.051Z,6.708374
2019-03-16T00:13:33.841Z,6.688232
2019-03-16T00:13:45.621Z,6.708374
2019-03-16T00:13:57.405Z,6.708374
2019-03-16T00:14:09.326Z,6.718445
2019-03-16T00:14:21.112Z,6.708374
2019-03-16T00:14:32.851Z,6.708374
2019-03-16T00:14:44.596Z,6.708374
2019-03-16T00:14:56.340Z,6.708374
2019-03-16T00:15:08.119Z,6.708374
2019-03-16T00:15:19.894Z,6.718445
2019-03-16T00:15:31.635Z,6.708374
2019-03-16T00:15:43.397Z,6.708374
2019-03-16T00:15:55.167Z,6.708374
2019-03-16T00:16:06.928Z,6.688232
2019-03-16T00:16:18.682Z,6.688232
2019-03-16T00:16:30.434Z,6.708374
2019-03-16T00:16:42.178Z,6.708374
2019-03-16T00:16:53.927Z,6.688232
2019-03-16T00:17:05.665Z,6.688232
2019-03-16T00:17:22.988Z,6.688232
2019-03-16T00:17:30.162Z,6.688232
2019-03-16T00:17:41.955Z,6.688232
2019-03-16T00:17:53.710Z,6.688232
2019-03-16T00:18:05.479Z,6.688232
2019-03-16T00:18:17.243Z,6.688232
2019-03-16T00:18:29.031Z,6.688232
2019-03-16T00:18:40.753Z,6.688232
2019-03-16T00:18:52.490Z,6.688232
2019-03-16T00:19:04.282Z,6.688232
2019-03-16T00:19:16.084Z,6.678162
2019-03-16T00:19:27.841Z,6.688232
2019-03-16T00:19:39.583Z,6.678162
2019-03-16T00:19:51.359Z,6.688232
2019-03-16T00:20:03.093Z,6.678162
2019-03-16T00:20:14.868Z,6.688232
2019-03-16T00:20:26.614Z,6.688232
2019-03-16T00:20:38.372Z,6.678162
2019-03-16T00:20:50.165Z,6.678162
2019-03-16T00:21:01.923Z,6.65802
2019-03-16T00:21:13.668Z,6.678162
2019-03-16T00:21:25.435Z,6.678162
2019-03-16T00:21:37.242Z,6.678162
2019-03-16T00:21:48.954Z,6.65802
2019-03-16T00:22:00.752Z,6.65802
2019-03-16T00:22:12.541Z,6.678162
2019-03-16T00:22:24.331Z,6.65802
2019-03-16T00:22:36.072Z,6.65802
2019-03-16T00:22:47.852Z,6.65802
2019-03-16T00:22:59.615Z,6.65802
2019-03-16T00:23:11.362Z,6.647949
2019-03-16T00:23:23.141Z,6.65802
2019-03-16T00:23:34.895Z,6.678162
2019-03-16T00:23:46.649Z,6.65802
2019-03-16T00:23:58.424Z,6.65802
2019-03-16T00:24:10.267Z,6.678162
2019-03-16T00:24:22.040Z,6.678162
2019-03-16T00:24:33.840Z,6.65802
2019-03-16T00:24:45.621Z,6.678162
2019-03-16T00:24:57.322Z,6.65802
2019-03-16T00:25:09.075Z,6.647949
2019-03-16T00:25:20.831Z,6.65802
2019-03-16T00:25:32.588Z,6.65802
2019-03-16T00:25:44.359Z,6.65802
2019-03-16T00:25:56.131Z,6.647949
2019-03-16T00:26:07.884Z,6.647949
2019-03-16T00:26:19.662Z,6.65802
2019-03-16T00:26:31.445Z,6.65802
2019-03-16T00:26:43.189Z,6.627808
2019-03-16T00:26:54.970Z,6.647949
2019-03-16T00:27:06.734Z,6.647949
2019-03-16T00:27:18.500Z,6.647949
2019-03-16T00:27:30.256Z,6.65802
2019-03-16T00:27:42.062Z,6.65802
2019-03-16T00:27:53.835Z,6.627808
2019-03-16T00:28:05.702Z,6.647949
2019-03-16T00:28:17.354Z,6.647949
2019-03-16T00:28:29.125Z,6.647949
2019-03-16T00:28:40.879Z,6.647949
2019-03-16T00:28:52.642Z,6.65802
2019-03-16T00:29:04.431Z,6.65802
2019-03-16T00:29:16.218Z,6.647949
2019-03-16T00:29:27.976Z,6.647949
2019-03-16T00:29:39.727Z,6.65802
2019-03-16T00:29:51.504Z,6.65802
2019-03-16T00:30:03.281Z,6.65802
2019-03-16T00:30:15.041Z,6.678162
2019-03-16T00:30:26.817Z,6.65802
2019-03-16T00:30:38.590Z,6.678162
2019-03-16T00:30:50.385Z,6.65802
2019-03-16T00:31:02.131Z,6.678162
2019-03-16T00:31:13.898Z,6.678162
2019-03-16T00:31:25.657Z,6.65802
2019-03-16T00:31:37.431Z,6.65802
2019-03-16T00:31:49.190Z,6.678162
2019-03-16T00:32:12.756Z,6.678162
2019-03-16T00:32:14.677Z,6.678162
2019-03-16T00:32:26.426Z,6.65802
2019-03-16T00:32:38.200Z,6.688232
2019-03-16T00:32:49.969Z,6.678162
2019-03-16T00:33:01.736Z,6.688232
2019-03-16T00:33:13.483Z,6.678162
2019-03-16T00:33:25.270Z,6.688232
2019-03-16T00:33:37.051Z,6.678162
2019-03-16T00:33:48.819Z,6.678162
2019-03-16T00:34:00.583Z,6.678162
2019-03-16T00:34:12.358Z,6.678162
2019-03-16T00:34:24.147Z,6.678162
2019-03-16T00:34:35.896Z,6.65802
2019-03-16T00:34:47.676Z,6.678162
2019-03-16T00:34:59.435Z,6.678162
2019-03-16T00:35:11.335Z,6.678162
2019-03-16T00:35:23.098Z,6.678162
2019-03-16T00:35:34.883Z,6.65802
2019-03-16T00:35:52.690Z,6.678162
2019-03-16T00:36:04.443Z,6.688232
2019-03-16T00:36:16.214Z,6.678162
2019-03-16T00:36:27.987Z,6.688232
2019-03-16T00:36:39.738Z,6.678162
2019-03-16T00:36:51.504Z,6.678162
2019-03-16T00:37:03.255Z,6.678162
2019-03-16T00:37:15.052Z,6.678162
2019-03-16T00:37:26.791Z,6.678162
2019-03-16T00:37:38.567Z,6.678162
2019-03-16T00:37:50.322Z,6.678162
2019-03-16T00:38:02.089Z,6.688232
2019-03-16T00:38:13.831Z,6.678162
2019-03-16T00:38:25.591Z,6.688232
2019-03-16T00:38:37.323Z,6.678162
2019-03-16T00:38:49.099Z,6.678162
2019-03-16T00:39:00.856Z,6.688232
2019-03-16T00:39:12.622Z,6.688232
2019-03-16T00:39:24.397Z,6.678162
2019-03-16T00:39:36.143Z,6.688232
2019-03-16T00:39:47.901Z,6.688232
2019-03-16T00:39:59.665Z,6.678162
2019-03-16T00:40:11.455Z,6.688232
2019-03-16T00:40:23.262Z,6.678162
2019-03-16T00:40:35.010Z,6.678162
2019-03-16T00:40:46.789Z,6.688232
2019-03-16T00:40:58.560Z,6.688232
2019-03-16T00:41:10.520Z,6.688232
2019-03-16T00:41:22.369Z,6.688232
2019-03-16T00:41:34.158Z,6.688232
2019-03-16T00:41:45.907Z,6.688232
2019-03-16T00:41:57.698Z,6.688232
2019-03-16T00:42:09.441Z,6.688232
2019-03-16T00:42:21.210Z,6.688232
2019-03-16T00:42:32.948Z,6.708374
2019-03-16T00:42:44.702Z,6.708374
2019-03-16T00:42:56.460Z,6.688232
2019-03-16T00:43:08.223Z,6.708374
2019-03-16T00:43:20.013Z,6.708374
2019-03-16T00:43:31.729Z,6.708374
2019-03-16T00:43:43.469Z,6.688232
2019-03-16T00:43:55.226Z,6.708374
2019-03-16T00:44:06.975Z,6.708374
2019-03-16T00:44:18.737Z,6.688232
2019-03-16T00:44:30.493Z,6.688232
2019-03-16T00:44:42.282Z,6.708374
2019-03-16T00:44:54.024Z,6.688232
2019-03-16T00:45:05.763Z,6.708374
2019-03-16T00:45:17.516Z,6.688232
2019-03-16T00:45:29.341Z,6.708374
2019-03-16T00:45:41.134Z,6.708374
2019-03-16T00:45:53.890Z,6.708374
2019-03-16T00:46:05.643Z,6.718445
2019-03-16T00:46:17.419Z,6.708374
2019-03-16T00:46:29.164Z,6.718445
2019-03-16T00:46:40.942Z,6.718445
2019-03-16T00:46:52.696Z,6.718445
2019-03-16T00:47:04.453Z,6.708374
2019-03-16T00:47:16.216Z,6.758728
2019-03-16T00:47:27.997Z,6.758728
2019-03-16T00:47:39.791Z,6.758728
2019-03-16T00:47:51.595Z,6.758728
2019-03-16T00:48:03.319Z,6.768799
2019-03-16T00:48:15.079Z,6.768799
2019-03-16T00:48:26.847Z,6.768799
2019-03-16T00:48:38.622Z,6.78894
2019-03-16T00:48:50.361Z,6.78894
2019-03-16T00:49:02.130Z,6.768799
2019-03-16T00:49:13.904Z,6.78894
2019-03-16T00:49:25.666Z,6.768799
2019-03-16T00:49:37.418Z,6.768799
2019-03-16T00:49:49.194Z,6.768799
2019-03-16T00:50:00.957Z,6.768799
2019-03-16T00:50:12.737Z,6.758728
2019-03-16T00:50:24.609Z,6.758728
2019-03-16T00:50:36.358Z,6.768799
2019-03-16T00:50:48.117Z,6.758728
2019-03-16T00:50:59.889Z,6.758728
2019-03-16T00:51:11.673Z,6.758728
2019-03-16T00:51:23.411Z,6.758728
2019-03-16T00:51:35.190Z,6.758728
2019-03-16T00:51:46.956Z,6.728516
2019-03-16T00:51:58.710Z,6.758728
2019-03-16T00:52:10.498Z,6.758728
2019-03-16T00:52:22.287Z,6.718445
2019-03-16T00:52:34.041Z,6.718445
2019-03-16T00:52:45.790Z,6.728516
2019-03-16T00:52:57.570Z,6.728516
2019-03-16T00:53:09.319Z,6.718445
2019-03-16T00:53:21.067Z,6.718445
2019-03-16T00:53:32.828Z,6.718445
2019-03-16T00:53:44.621Z,6.688232
2019-03-16T00:53:56.356Z,6.708374
2019-03-16T00:54:08.116Z,6.708374
2019-03-16T00:54:19.897Z,6.708374
2019-03-16T00:54:31.678Z,6.688232
2019-03-16T00:54:43.412Z,6.688232
2019-03-16T00:54:55.162Z,6.688232
2019-03-16T00:55:06.943Z,6.688232
2019-03-16T00:55:18.713Z,6.688232
2019-03-16T00:55:30.494Z,6.678162
2019-03-16T00:55:42.268Z,6.678162
2019-03-16T00:55:54.032Z,6.688232
2019-03-16T00:56:05.799Z,6.688232
2019-03-16T00:56:17.585Z,6.678162
2019-03-16T00:56:29.341Z,6.65802
2019-03-16T00:56:41.106Z,6.678162
2019-03-16T00:56:52.875Z,6.678162
2019-03-16T00:57:04.650Z,6.65802
2019-03-16T00:57:16.383Z,6.647949
2019-03-16T00:57:28.130Z,6.647949
2019-03-16T00:57:39.877Z,6.647949
2019-03-16T00:57:51.656Z,6.647949
2019-03-16T00:58:03.425Z,6.65802
2019-03-16T00:58:15.180Z,6.65802
2019-03-16T00:58:26.951Z,6.647949
2019-03-16T00:58:38.689Z,6.647949
2019-03-16T00:58:50.471Z,6.647949
2019-03-16T00:59:02.253Z,6.647949
2019-03-16T00:59:13.987Z,6.647949
2019-03-16T00:59:25.753Z,6.65802
2019-03-16T00:59:37.518Z,6.65802
2019-03-16T00:59:49.270Z,6.647949
2019-03-16T01:00:01.029Z,6.65802
2019-03-16T01:00:12.767Z,6.65802
2019-03-16T01:00:24.556Z,6.647949
2019-03-16T01:00:36.340Z,6.65802
2019-03-16T01:00:48.130Z,6.647949
2019-03-16T01:00:59.900Z,6.65802
2019-03-16T01:01:11.678Z,6.65802
2019-03-16T01:01:23.438Z,6.65802
2019-03-16T01:01:35.234Z,6.65802
2019-03-16T01:01:46.974Z,6.678162
2019-03-16T01:01:58.738Z,6.678162
2019-03-16T01:02:10.517Z,6.65802
2019-03-16T01:02:27.234Z,6.688232
2019-03-16T01:02:34.997Z,6.678162
2019-03-16T01:02:46.792Z,6.678162
2019-03-16T01:02:58.690Z,6.65802
2019-03-16T01:03:10.352Z,6.678162
2019-03-16T01:03:22.110Z,6.678162
2019-03-16T01:03:33.857Z,6.65802
2019-03-16T01:03:45.725Z,6.678162
2019-03-16T01:03:57.380Z,6.678162
2019-03-16T01:04:09.157Z,6.65802
2019-03-16T01:04:20.912Z,6.678162
2019-03-16T01:04:32.669Z,6.647949
2019-03-16T01:04:44.432Z,6.678162
2019-03-16T01:04:56.199Z,6.678162
2019-03-16T01:05:07.945Z,6.65802
2019-03-16T01:05:19.718Z,6.678162
2019-03-16T01:05:31.482Z,6.65802
2019-03-16T01:05:43.238Z,6.65802
2019-03-16T01:05:55.036Z,6.65802
2019-03-16T01:06:06.789Z,6.65802
2019-03-16T01:06:18.585Z,6.65802
2019-03-16T01:06:30.346Z,6.678162
2019-03-16T01:06:42.123Z,6.65802
2019-03-16T01:06:53.914Z,6.678162
2019-03-16T01:07:05.696Z,6.678162
2019-03-16T01:07:17.447Z,6.65802
2019-03-16T01:07:29.200Z,6.678162
2019-03-16T01:07:40.964Z,6.65802
2019-03-16T01:07:52.731Z,6.65802
2019-03-16T01:08:04.487Z,6.65802
2019-03-16T01:08:16.268Z,6.65802
2019-03-16T01:08:28.008Z,6.65802
2019-03-16T01:08:39.772Z,6.65802
2019-03-16T01:08:51.553Z,6.65802
2019-03-16T01:09:03.323Z,6.647949
2019-03-16T01:09:15.093Z,6.647949
2019-03-16T01:09:26.843Z,6.65802
2019-03-16T01:09:38.596Z,6.65802
2019-03-16T01:09:50.343Z,6.647949
2019-03-16T01:10:03.069Z,6.647949
2019-03-16T01:10:14.811Z,6.647949
2019-03-16T01:10:26.598Z,6.647949
2019-03-16T01:10:38.337Z,6.627808
2019-03-16T01:10:50.101Z,6.627808
2019-03-16T01:11:01.860Z,6.647949
2019-03-16T01:11:13.650Z,6.627808
2019-03-16T01:11:25.393Z,6.617737
2019-03-16T01:11:37.152Z,6.617737
2019-03-16T01:11:48.949Z,6.627808
2019-03-16T01:12:00.709Z,6.627808
2019-03-16T01:12:12.452Z,6.627808
2019-03-16T01:12:24.220Z,6.647949
2019-03-16T01:12:36.017Z,6.627808
2019-03-16T01:12:47.774Z,6.627808
2019-03-16T01:12:59.521Z,6.627808
2019-03-16T01:13:11.259Z,6.627808
2019-03-16T01:13:23.024Z,6.627808
2019-03-16T01:13:34.792Z,6.627808
2019-03-16T01:13:46.556Z,6.627808
2019-03-16T01:13:58.325Z,6.627808
2019-03-16T01:14:10.058Z,6.627808
2019-03-16T01:14:21.841Z,6.617737
2019-03-16T01:14:33.645Z,6.617737
2019-03-16T01:14:45.399Z,6.607666
2019-03-16T01:14:57.148Z,6.617737
2019-03-16T01:15:08.882Z,6.617737
2019-03-16T01:15:20.637Z,6.627808
2019-03-16T01:15:32.389Z,6.617737
2019-03-16T01:15:44.146Z,6.617737
2019-03-16T01:15:55.916Z,6.607666
2019-03-16T01:16:07.691Z,6.607666
2019-03-16T01:16:19.448Z,6.607666
2019-03-16T01:16:31.189Z,6.607666
2019-03-16T01:16:42.938Z,6.607666
2019-03-16T01:16:54.705Z,6.587524
2019-03-16T01:17:06.516Z,6.607666
2019-03-16T01:17:18.263Z,6.607666
2019-03-16T01:17:30.001Z,6.587524
2019-03-16T01:17:41.766Z,6.587524
2019-03-16T01:17:53.571Z,6.607666
2019-03-16T01:18:05.335Z,6.607666
2019-03-16T01:18:17.086Z,6.607666
2019-03-16T01:18:28.858Z,6.607666
2019-03-16T01:18:40.625Z,6.607666
2019-03-16T01:18:52.376Z,6.587524
2019-03-16T01:19:04.156Z,6.607666
2019-03-16T01:19:15.923Z,6.617737
2019-03-16T01:19:27.682Z,6.607666
2019-03-16T01:19:39.456Z,6.607666
2019-03-16T01:19:51.227Z,6.617737
2019-03-16T01:20:02.997Z,6.607666
2019-03-16T01:20:14.791Z,6.617737
2019-03-16T01:20:26.559Z,6.617737
2019-03-16T01:20:38.360Z,6.617737
2019-03-16T01:20:50.118Z,6.607666
2019-03-16T01:21:01.880Z,6.607666
2019-03-16T01:21:13.622Z,6.617737
2019-03-16T01:21:25.376Z,6.617737
2019-03-16T01:21:37.122Z,6.617737
2019-03-16T01:21:48.860Z,6.617737
2019-03-16T01:22:00.630Z,6.617737
2019-03-16T01:22:12.402Z,6.617737
2019-03-16T01:22:24.159Z,6.617737
2019-03-16T01:22:35.945Z,6.617737
2019-03-16T01:22:47.846Z,6.607666
2019-03-16T01:22:59.588Z,6.607666
2019-03-16T01:23:11.331Z,6.607666
2019-03-16T01:23:23.087Z,6.617737
2019-03-16T01:23:34.871Z,6.617737
2019-03-16T01:23:46.670Z,6.607666
2019-03-16T01:23:58.448Z,6.607666
2019-03-16T01:24:10.255Z,6.587524
2019-03-16T01:24:22.013Z,6.607666
2019-03-16T01:24:33.800Z,6.607666
2019-03-16T01:24:45.573Z,6.607666
2019-03-16T01:24:57.314Z,6.607666
2019-03-16T01:25:09.092Z,6.617737
2019-03-16T01:25:20.840Z,6.617737
2019-03-16T01:25:32.596Z,6.617737
2019-03-16T01:25:44.332Z,6.617737
2019-03-16T01:25:56.089Z,6.607666
2019-03-16T01:26:07.851Z,6.607666
2019-03-16T01:26:19.635Z,6.607666
2019-03-16T01:26:31.419Z,6.617737
2019-03-16T01:26:43.188Z,6.617737
2019-03-16T01:26:54.941Z,6.617737
2019-03-16T01:27:06.704Z,6.607666
2019-03-16T01:27:18.454Z,6.627808
2019-03-16T01:27:30.233Z,6.627808
2019-03-16T01:27:41.990Z,6.627808
2019-03-16T01:27:53.790Z,6.627808
2019-03-16T01:28:06.547Z,6.627808
2019-03-16T01:28:18.359Z,6.647949
2019-03-16T01:28:30.110Z,6.647949
2019-03-16T01:28:41.872Z,6.627808
2019-03-16T01:28:53.619Z,6.627808
2019-03-16T01:29:05.389Z,6.627808
2019-03-16T01:29:17.130Z,6.627808
2019-03-16T01:29:28.883Z,6.627808
2019-03-16T01:29:40.660Z,6.627808
2019-03-16T01:29:52.419Z,6.647949
2019-03-16T01:30:04.194Z,6.65802
2019-03-16T01:30:15.926Z,6.65802
2019-03-16T01:30:27.715Z,6.65802
2019-03-16T01:30:39.488Z,6.678162
2019-03-16T01:30:51.256Z,6.65802
2019-03-16T01:31:03.035Z,6.65802
2019-03-16T01:31:14.804Z,6.65802
2019-03-16T01:31:26.542Z,6.678162
2019-03-16T01:31:38.311Z,6.65802
2019-03-16T01:31:50.076Z,6.678162
2019-03-16T01:32:01.842Z,6.65802
2019-03-16T01:32:13.598Z,6.678162
2019-03-16T01:32:25.342Z,6.678162
2019-03-16T01:32:40.696Z,6.678162
2019-03-16T01:32:49.803Z,6.688232
2019-03-16T01:33:01.607Z,6.688232
2019-03-16T01:33:13.359Z,6.688232
2019-03-16T01:33:25.114Z,6.688232
2019-03-16T01:33:36.879Z,6.708374
2019-03-16T01:33:48.643Z,6.688232
2019-03-16T01:34:00.410Z,6.688232
2019-03-16T01:34:12.190Z,6.708374
2019-03-16T01:34:23.967Z,6.688232
2019-03-16T01:34:35.733Z,6.708374
2019-03-16T01:34:47.534Z,6.708374
2019-03-16T01:34:59.296Z,6.688232
2019-03-16T01:35:11.072Z,6.688232
2019-03-16T01:35:22.850Z,6.688232
2019-03-16T01:35:34.626Z,6.688232
2019-03-16T01:35:46.353Z,6.708374
2019-03-16T01:35:58.155Z,6.688232
2019-03-16T01:36:09.912Z,6.688232
2019-03-16T01:36:21.692Z,6.688232
2019-03-16T01:36:33.428Z,6.688232
2019-03-16T01:36:45.227Z,6.688232
2019-03-16T01:36:56.990Z,6.688232
2019-03-16T01:37:08.750Z,6.688232
2019-03-16T01:37:20.518Z,6.688232
2019-03-16T01:37:32.290Z,6.678162
2019-03-16T01:37:44.040Z,6.678162
2019-03-16T01:37:55.831Z,6.678162
2019-03-16T01:38:07.570Z,6.678162
2019-03-16T01:38:19.326Z,6.678162
2019-03-16T01:38:31.070Z,6.678162
2019-03-16T01:38:42.809Z,6.678162
2019-03-16T01:38:54.560Z,6.678162
2019-03-16T01:39:06.294Z,6.65802
2019-03-16T01:39:18.069Z,6.65802
2019-03-16T01:39:29.854Z,6.678162
2019-03-16T01:39:41.602Z,6.678162
2019-03-16T01:39:53.392Z,6.65802
2019-03-16T01:40:05.188Z,6.65802
2019-03-16T01:40:16.928Z,6.65802
2019-03-16T01:40:28.715Z,6.678162
2019-03-16T01:40:40.510Z,6.688232
2019-03-16T01:40:52.243Z,6.688232
2019-03-16T01:41:04.011Z,6.688232
2019-03-16T01:41:15.762Z,6.688232
2019-03-16T01:41:27.499Z,6.678162
2019-03-16T01:41:39.291Z,6.678162
2019-03-16T01:41:51.048Z,6.678162
2019-03-16T01:42:02.798Z,6.678162
2019-03-16T01:42:14.554Z,6.678162
2019-03-16T01:42:26.349Z,6.678162
2019-03-16T01:42:38.094Z,6.678162
2019-03-16T01:42:49.855Z,6.688232
2019-03-16T01:43:01.612Z,6.65802
2019-03-16T01:43:13.388Z,6.688232
2019-03-16T01:43:25.129Z,6.678162
2019-03-16T01:43:36.910Z,6.678162
2019-03-16T01:43:48.808Z,6.678162
2019-03-16T01:44:00.560Z,6.678162
2019-03-16T01:44:12.324Z,6.678162
2019-03-16T01:44:24.069Z,6.65802
2019-03-16T01:44:35.831Z,6.647949
2019-03-16T01:44:47.605Z,6.65802
2019-03-16T01:44:59.387Z,6.65802
2019-03-16T01:45:11.171Z,6.647949
2019-03-16T01:45:22.934Z,6.647949
2019-03-16T01:45:34.705Z,6.647949
2019-03-16T01:45:47.452Z,6.647949
2019-03-16T01:45:59.223Z,6.647949
2019-03-16T01:46:10.990Z,6.647949
2019-03-16T01:46:22.758Z,6.65802
2019-03-16T01:46:34.501Z,6.647949
2019-03-16T01:46:46.270Z,6.647949
2019-03-16T01:46:58.008Z,6.65802
2019-03-16T01:47:09.763Z,6.647949
2019-03-16T01:47:21.543Z,6.65802
2019-03-16T01:47:33.298Z,6.647949
2019-03-16T01:47:45.040Z,6.647949
2019-03-16T01:47:56.807Z,6.65802
2019-03-16T01:48:08.579Z,6.65802
2019-03-16T01:48:20.349Z,6.647949
2019-03-16T01:48:32.119Z,6.647949
2019-03-16T01:48:43.863Z,6.65802
2019-03-16T01:48:55.643Z,6.65802
2019-03-16T01:49:07.415Z,6.65802
2019-03-16T01:49:19.197Z,6.65802
2019-03-16T01:49:30.949Z,6.65802
2019-03-16T01:49:43.699Z,6.647949
2019-03-16T01:49:55.486Z,6.647949
2019-03-16T01:50:07.246Z,6.65802
2019-03-16T01:50:21.482Z,6.65802
2019-03-16T01:50:30.762Z,6.647949
2019-03-16T01:50:42.553Z,6.647949
2019-03-16T01:50:54.296Z,6.647949
2019-03-16T01:51:06.075Z,6.647949
2019-03-16T01:51:17.846Z,6.647949
2019-03-16T01:51:29.593Z,6.627808
2019-03-16T01:51:41.360Z,6.647949
2019-03-16T01:51:53.166Z,6.65802
2019-03-16T01:52:04.915Z,6.647949
2019-03-16T01:52:16.663Z,6.647949
2019-03-16T01:52:28.429Z,6.647949
2019-03-16T01:52:40.209Z,6.647949
2019-03-16T01:52:51.957Z,6.647949
2019-03-16T01:53:03.707Z,6.647949
2019-03-16T01:53:15.452Z,6.627808
2019-03-16T01:53:27.265Z,6.627808
2019-03-16T01:53:39.049Z,6.647949
2019-03-16T01:53:50.798Z,6.647949
2019-03-16T01:54:02.548Z,6.627808
2019-03-16T01:54:14.311Z,6.627808
2019-03-16T01:54:26.056Z,6.627808
2019-03-16T01:54:37.820Z,6.617737
2019-03-16T01:54:49.571Z,6.647949
2019-03-16T01:55:01.346Z,6.617737
2019-03-16T01:55:13.239Z,6.627808
2019-03-16T01:55:25.039Z,6.627808
2019-03-16T01:55:36.781Z,6.627808
2019-03-16T01:55:48.518Z,6.627808
2019-03-16T01:56:00.268Z,6.627808
2019-03-16T01:56:12.053Z,6.627808
2019-03-16T01:56:23.820Z,6.647949
2019-03-16T01:56:36.575Z,6.647949
2019-03-16T01:56:48.345Z,6.627808
2019-03-16T01:57:00.119Z,6.627808
2019-03-16T01:57:11.908Z,6.627808
2019-03-16T01:57:23.685Z,6.627808
2019-03-16T01:57:35.439Z,6.627808
2019-03-16T01:57:47.217Z,6.627808
2019-03-16T01:57:58.962Z,6.627808
2019-03-16T01:58:10.731Z,6.647949
2019-03-16T01:58:22.473Z,6.627808
2019-03-16T01:58:34.259Z,6.647949
2019-03-16T01:58:46.008Z,6.627808
2019-03-16T01:58:57.806Z,6.627808
2019-03-16T01:59:09.549Z,6.647949
2019-03-16T01:59:21.321Z,6.647949
2019-03-16T01:59:33.075Z,6.627808
2019-03-16T01:59:44.845Z,6.627808
2019-03-16T01:59:56.609Z,6.647949
2019-03-16T02:00:08.383Z,6.647949
2019-03-16T02:00:20.192Z,6.647949
2019-03-16T02:00:31.944Z,6.65802
2019-03-16T02:00:43.719Z,6.647949
2019-03-16T02:00:55.463Z,6.627808
2019-03-16T02:01:07.255Z,6.65802
2019-03-16T02:01:19.005Z,6.647949
2019-03-16T02:01:30.768Z,6.647949
2019-03-16T02:01:42.531Z,6.65802
2019-03-16T02:01:54.324Z,6.647949
2019-03-16T02:02:06.142Z,6.65802
2019-03-16T02:02:17.896Z,6.65802
2019-03-16T02:02:29.659Z,6.65802
2019-03-16T02:02:54.054Z,6.65802
2019-03-16T02:02:55.969Z,6.65802
2019-03-16T02:03:06.877Z,6.647949
2019-03-16T02:03:19.625Z,6.65802
2019-03-16T02:03:31.396Z,6.647949
2019-03-16T02:03:43.188Z,6.647949
2019-03-16T02:03:54.970Z,6.647949
2019-03-16T02:04:06.711Z,6.65802
2019-03-16T02:04:18.534Z,6.647949
2019-03-16T02:04:30.230Z,6.647949
2019-03-16T02:04:42.013Z,6.627808
2019-03-16T02:04:53.740Z,6.627808
2019-03-16T02:05:05.540Z,6.647949
2019-03-16T02:05:17.310Z,6.627808
2019-03-16T02:05:29.080Z,6.627808
2019-03-16T02:05:40.874Z,6.627808
2019-03-16T02:05:52.658Z,6.647949
2019-03-16T02:06:04.403Z,6.627808
2019-03-16T02:06:16.148Z,6.647949
2019-03-16T02:06:27.900Z,6.627808
2019-03-16T02:06:39.655Z,6.647949
2019-03-16T02:06:51.416Z,6.627808
2019-03-16T02:07:03.205Z,6.647949
2019-03-16T02:07:14.976Z,6.647949
2019-03-16T02:07:26.721Z,6.65802
2019-03-16T02:07:38.485Z,6.65802
2019-03-16T02:07:50.220Z,6.647949
2019-03-16T02:08:01.969Z,6.65802
2019-03-16T02:08:13.730Z,6.65802
2019-03-16T02:08:25.499Z,6.65802
2019-03-16T02:08:37.257Z,6.65802
2019-03-16T02:08:49.010Z,6.65802
2019-03-16T02:09:00.791Z,6.65802
2019-03-16T02:09:12.549Z,6.647949
2019-03-16T02:09:24.311Z,6.65802
2019-03-16T02:09:36.059Z,6.647949
2019-03-16T02:09:47.839Z,6.65802
2019-03-16T02:09:59.618Z,6.65802
2019-03-16T02:10:11.380Z,6.647949
2019-03-16T02:10:23.158Z,6.647949
2019-03-16T02:10:34.899Z,6.65802
2019-03-16T02:10:46.646Z,6.65802
2019-03-16T02:10:58.384Z,6.65802
2019-03-16T02:11:10.128Z,6.647949
2019-03-16T02:11:21.897Z,6.65802
2019-03-16T02:11:33.641Z,6.647949
2019-03-16T02:11:45.403Z,6.647949
2019-03-16T02:12:00.191Z,6.65802
2019-03-16T02:12:08.904Z,6.65802
2019-03-16T02:12:20.664Z,6.647949
2019-03-16T02:12:32.423Z,6.647949
2019-03-16T02:12:44.216Z,6.647949
2019-03-16T02:12:56.006Z,6.647949
2019-03-16T02:13:07.771Z,6.65802
2019-03-16T02:13:19.538Z,6.65802
2019-03-16T02:13:31.291Z,6.678162
2019-03-16T02:13:43.032Z,6.678162
2019-03-16T02:13:54.786Z,6.65802
2019-03-16T02:14:06.532Z,6.678162
2019-03-16T02:14:18.282Z,6.678162
2019-03-16T02:14:30.038Z,6.65802
2019-03-16T02:14:41.833Z,6.678162
2019-03-16T02:14:53.653Z,6.65802
2019-03-16T02:15:05.354Z,6.65802
2019-03-16T02:15:17.125Z,6.65802
2019-03-16T02:15:28.913Z,6.678162
2019-03-16T02:15:40.687Z,6.65802
2019-03-16T02:15:52.455Z,6.65802
2019-03-16T02:16:10.618Z,6.65802
2019-03-16T02:16:16.890Z,6.65802
2019-03-16T02:16:28.662Z,6.65802
2019-03-16T02:16:40.464Z,6.65802
2019-03-16T02:16:52.219Z,6.65802
2019-03-16T02:17:04.032Z,6.65802
2019-03-16T02:17:15.790Z,6.65802
2019-03-16T02:17:27.569Z,6.65802
2019-03-16T02:17:39.350Z,6.647949
2019-03-16T02:17:51.120Z,6.65802
2019-03-16T02:18:02.917Z,6.65802
2019-03-16T02:18:14.721Z,6.647949
2019-03-16T02:18:26.476Z,6.647949
2019-03-16T02:18:38.264Z,6.65802
2019-03-16T02:18:50.004Z,6.65802
2019-03-16T02:19:01.744Z,6.65802
2019-03-16T02:19:13.498Z,6.647949
2019-03-16T02:19:25.268Z,6.678162